createdAt,value
2023-03-03T00:00:42.960Z,1.43
2023-03-03T00:01:42.896Z,1.43
2023-03-03T00:02:42.840Z,1.56
2023-03-03T00:03:42.810Z,1.47
2023-03-03T00:05:03.661Z,1.38
2023-03-03T00:05:42.636Z,1.53
2023-03-03T00:06:42.536Z,1.47
2023-03-03T00:07:42.466Z,1.43
2023-03-03T00:08:42.401Z,1.36
2023-03-03T00:09:42.323Z,1.36
2023-03-03T00:11:03.282Z,1.36
2023-03-03T00:11:42.179Z,1.43
2023-03-03T00:12:42.135Z,1.44
2023-03-03T00:13:42.036Z,1.54
2023-03-03T00:14:41.972Z,1.46
2023-03-03T00:15:41.913Z,1.44
2023-03-03T00:17:02.845Z,1.44
2023-03-03T00:17:41.764Z,1.50
2023-03-03T00:18:41.716Z,1.44
2023-03-03T00:19:41.609Z,1.43
2023-03-03T00:20:41.541Z,1.46
2023-03-03T00:21:41.481Z,1.44
2023-03-03T00:23:02.374Z,1.49
2023-03-03T00:23:41.343Z,1.61
2023-03-03T00:24:41.258Z,1.56
2023-03-03T00:25:41.192Z,1.60
2023-03-03T00:26:41.110Z,1.64
2023-03-03T00:27:41.047Z,1.64
2023-03-03T00:29:01.998Z,1.46
2023-03-03T00:29:40.904Z,1.53
2023-03-03T00:30:40.830Z,1.43
2023-03-03T00:31:40.769Z,1.47
2023-03-03T00:32:40.686Z,1.39
2023-03-03T00:33:40.619Z,1.50
2023-03-03T00:35:01.545Z,1.50
2023-03-03T00:35:40.501Z,1.47
2023-03-03T00:36:40.425Z,1.46
2023-03-03T00:37:40.338Z,1.52
2023-03-03T00:38:40.267Z,1.49
2023-03-03T00:39:40.210Z,1.49
2023-03-03T00:41:01.109Z,1.46
2023-03-03T00:41:40.059Z,1.54
2023-03-03T00:42:39.990Z,1.47
2023-03-03T00:43:39.915Z,1.52
2023-03-03T00:44:39.839Z,1.53
2023-03-03T00:45:39.789Z,1.49
2023-03-03T00:47:00.680Z,1.49
2023-03-03T00:47:39.628Z,1.49
2023-03-03T00:48:39.554Z,1.39
2023-03-03T00:49:39.532Z,1.49
2023-03-03T00:50:39.426Z,1.50
2023-03-03T00:51:39.344Z,1.47
2023-03-03T00:53:00.265Z,1.44
2023-03-03T00:53:39.205Z,1.49
2023-03-03T00:54:39.127Z,1.47
2023-03-03T00:55:39.063Z,1.49
2023-03-03T00:56:39.000Z,1.52
2023-03-03T00:57:38.936Z,1.50
2023-03-03T00:58:59.833Z,1.52
2023-03-03T00:59:38.777Z,1.49
2023-03-03T01:00:38.713Z,1.44
2023-03-03T01:01:38.686Z,1.49
2023-03-03T01:02:38.618Z,1.60
2023-03-03T01:03:38.501Z,1.64
2023-03-03T01:04:59.498Z,1.53
2023-03-03T01:05:38.372Z,1.63
2023-03-03T01:06:38.286Z,1.54
2023-03-03T01:07:38.218Z,1.63
2023-03-03T01:08:38.146Z,1.53
2023-03-03T01:09:38.073Z,1.61
2023-03-03T01:10:59.003Z,1.46
2023-03-03T01:11:37.975Z,1.56
2023-03-03T01:12:37.860Z,1.57
2023-03-03T01:13:38.157Z,1.50
2023-03-03T01:14:37.717Z,1.50
2023-03-03T01:15:37.661Z,1.56
2023-03-03T01:16:58.550Z,1.61
2023-03-03T01:17:37.501Z,1.61
2023-03-03T01:18:37.436Z,1.63
2023-03-03T01:19:37.361Z,1.61
2023-03-03T01:20:37.285Z,1.61
2023-03-03T01:21:37.229Z,1.60
2023-03-03T01:22:58.134Z,1.50
2023-03-03T01:23:37.076Z,1.56
2023-03-03T01:24:37.013Z,1.57
2023-03-03T01:25:36.941Z,1.63
2023-03-03T01:26:36.891Z,1.60
2023-03-03T01:27:36.807Z,1.57
2023-03-03T01:28:57.707Z,1.54
2023-03-03T01:29:36.650Z,1.54
2023-03-03T01:30:36.582Z,1.57
2023-03-03T01:31:36.583Z,1.64
2023-03-03T01:32:36.438Z,1.64
2023-03-03T01:33:36.375Z,1.65
2023-03-03T01:34:57.280Z,1.56
2023-03-03T01:35:36.269Z,1.57
2023-03-03T01:36:36.160Z,1.65
2023-03-03T01:37:36.104Z,1.61
2023-03-03T01:38:36.013Z,1.61
2023-03-03T01:39:35.943Z,1.63
2023-03-03T01:40:56.894Z,1.67
2023-03-03T01:41:35.812Z,1.57
2023-03-03T01:42:35.778Z,1.57
2023-03-03T01:43:35.667Z,1.64
2023-03-03T01:44:35.597Z,1.56
2023-03-03T01:45:35.523Z,1.63
2023-03-03T01:46:56.444Z,1.60
2023-03-03T01:47:35.453Z,1.63
2023-03-03T01:48:35.318Z,1.63
2023-03-03T01:49:35.234Z,1.72
2023-03-03T01:50:35.170Z,1.60
2023-03-03T01:51:35.116Z,1.70
2023-03-03T01:52:56.025Z,1.63
2023-03-03T01:53:34.950Z,1.60
2023-03-03T01:54:34.893Z,1.61
2023-03-03T01:55:34.816Z,1.60
2023-03-03T01:56:34.765Z,1.63
2023-03-03T01:57:34.669Z,1.65
2023-03-03T01:58:55.586Z,1.64
2023-03-03T01:59:34.526Z,1.61
2023-03-03T02:00:34.462Z,1.54
2023-03-03T02:01:34.462Z,1.56
2023-03-03T02:02:34.351Z,1.53
2023-03-03T02:03:34.246Z,1.61
2023-03-03T02:04:55.168Z,1.65
2023-03-03T02:05:34.108Z,1.61
2023-03-03T02:06:34.038Z,1.60
2023-03-03T02:07:33.957Z,1.42
2023-03-03T02:08:33.892Z,1.43
2023-03-03T02:09:33.825Z,1.44
2023-03-03T02:10:54.730Z,1.42
2023-03-03T02:11:33.684Z,1.36
2023-03-03T02:12:33.625Z,1.43
2023-03-03T02:13:33.546Z,1.39
2023-03-03T02:14:33.466Z,1.43
2023-03-03T02:15:33.405Z,1.39
2023-03-03T02:16:54.310Z,1.39
2023-03-03T02:17:33.267Z,1.49
2023-03-03T02:18:33.200Z,1.52
2023-03-03T02:19:33.118Z,1.50
2023-03-03T02:20:33.071Z,1.47
2023-03-03T02:21:32.995Z,1.52
2023-03-03T02:22:53.893Z,1.43
2023-03-03T02:23:32.849Z,1.42
2023-03-03T02:24:32.760Z,1.39
2023-03-03T02:25:32.697Z,1.52
2023-03-03T02:26:32.638Z,1.35
2023-03-03T02:27:32.564Z,1.49
2023-03-03T02:28:53.459Z,1.50
2023-03-03T02:29:32.427Z,1.52
2023-03-03T02:30:32.342Z,1.46
2023-03-03T02:31:32.359Z,1.54
2023-03-03T02:32:32.265Z,1.47
2023-03-03T02:33:32.128Z,1.50
2023-03-03T02:34:53.057Z,1.46
2023-03-03T02:35:32.053Z,1.42
2023-03-03T02:36:31.920Z,1.49
2023-03-03T02:37:31.844Z,1.42
2023-03-03T02:38:31.777Z,1.52
2023-03-03T02:39:31.699Z,1.39
2023-03-03T02:40:52.622Z,1.46
2023-03-03T02:41:31.562Z,1.43
2023-03-03T02:42:31.499Z,1.46
2023-03-03T02:43:31.432Z,1.43
2023-03-03T02:44:31.360Z,1.52
2023-03-03T02:45:31.294Z,1.50
2023-03-03T02:46:52.197Z,1.44
2023-03-03T02:47:31.133Z,1.56
2023-03-03T02:48:31.079Z,1.47
2023-03-03T02:49:31.004Z,1.50
2023-03-03T02:50:30.949Z,1.54
2023-03-03T02:51:30.992Z,1.49
2023-03-03T02:52:51.756Z,1.50
2023-03-03T02:53:30.930Z,1.35
2023-03-03T02:54:31.228Z,1.47
2023-03-03T02:55:30.797Z,1.35
2023-03-03T02:56:30.657Z,1.49
2023-03-03T02:57:30.480Z,1.38
2023-03-03T02:58:51.386Z,1.35
2023-03-03T02:59:30.346Z,1.14
2023-03-03T03:00:30.303Z,1.13
2023-03-03T03:01:30.142Z,1.08
2023-03-03T03:02:30.069Z,1.13
2023-03-03T03:03:30.230Z,1.10
2023-03-03T03:04:51.018Z,1.14
2023-03-03T03:05:29.873Z,1.20
2023-03-03T03:06:29.869Z,1.25
2023-03-03T03:07:29.782Z,1.16
2023-03-03T03:08:29.941Z,1.25
2023-03-03T03:09:29.599Z,1.26
2023-03-03T03:10:50.487Z,1.28
2023-03-03T03:11:29.456Z,1.25
2023-03-03T03:12:29.437Z,1.25
2023-03-03T03:13:29.306Z,1.26
2023-03-03T03:14:29.244Z,1.25
2023-03-03T03:15:29.156Z,1.25
2023-03-03T03:16:50.124Z,1.26
2023-03-03T03:17:29.002Z,1.18
2023-03-03T03:18:28.947Z,1.20
2023-03-03T03:19:28.877Z,1.11
2023-03-03T03:20:28.871Z,1.13
2023-03-03T03:21:29.213Z,1.13
2023-03-03T03:22:49.708Z,1.11
2023-03-03T03:23:28.570Z,0.98
2023-03-03T03:24:28.539Z,1.00
2023-03-03T03:25:28.436Z,1.10
2023-03-03T03:26:28.364Z,1.07
2023-03-03T03:27:28.299Z,1.07
2023-03-03T03:28:49.403Z,1.06
2023-03-03T03:29:28.145Z,0.93
2023-03-03T03:30:28.254Z,0.80
2023-03-03T03:31:28.129Z,0.74
2023-03-03T03:32:28.080Z,0.82
2023-03-03T03:33:28.078Z,0.77
2023-03-03T03:34:48.804Z,0.81
2023-03-03T03:35:27.904Z,0.82
2023-03-03T03:36:27.675Z,0.81
2023-03-03T03:37:27.615Z,0.86
2023-03-03T03:38:27.555Z,0.95
2023-03-03T03:39:27.459Z,0.98
2023-03-03T03:40:48.414Z,0.90
2023-03-03T03:41:27.380Z,0.93
2023-03-03T03:42:27.233Z,0.98
2023-03-03T03:43:27.161Z,0.93
2023-03-03T03:44:27.111Z,0.81
2023-03-03T03:45:27.035Z,0.72
2023-03-03T03:46:47.931Z,0.80
2023-03-03T03:47:26.886Z,0.72
2023-03-03T03:48:26.824Z,0.67
2023-03-03T03:49:26.732Z,0.75
2023-03-03T03:50:26.685Z,0.75
2023-03-03T03:51:26.725Z,0.77
2023-03-03T03:52:47.665Z,0.77
2023-03-03T03:53:26.612Z,0.81
2023-03-03T03:54:26.402Z,0.88
2023-03-03T03:55:26.495Z,0.88
2023-03-03T03:56:27.241Z,0.92
2023-03-03T03:57:26.756Z,0.96
2023-03-03T03:58:47.143Z,1.00
2023-03-03T03:59:26.222Z,0.96
2023-03-03T04:00:25.965Z,0.99
2023-03-03T04:01:25.903Z,0.99
2023-03-03T04:02:25.921Z,0.93
2023-03-03T04:03:25.906Z,1.00
2023-03-03T04:04:46.675Z,0.93
2023-03-03T04:05:25.635Z,0.92
2023-03-03T04:06:25.572Z,0.92
2023-03-03T04:07:25.478Z,0.88
2023-03-03T04:08:25.420Z,0.88
2023-03-03T04:09:25.326Z,0.81
2023-03-03T04:10:46.250Z,0.81
2023-03-03T04:11:25.347Z,0.70
2023-03-03T04:12:25.293Z,0.81
2023-03-03T04:13:25.025Z,0.78
2023-03-03T04:14:24.980Z,0.81
2023-03-03T04:15:24.914Z,0.81
2023-03-03T04:16:45.815Z,0.82
2023-03-03T04:17:24.737Z,0.80
2023-03-03T04:18:24.710Z,0.81
2023-03-03T04:19:24.616Z,0.80
2023-03-03T04:20:24.545Z,0.77
2023-03-03T04:21:24.478Z,0.75
2023-03-03T04:22:45.576Z,0.75
2023-03-03T04:23:24.345Z,0.78
2023-03-03T04:24:24.260Z,0.75
2023-03-03T04:25:24.220Z,0.53
2023-03-03T04:26:24.662Z,0.71
2023-03-03T04:27:24.058Z,0.62
2023-03-03T04:28:44.962Z,0.57
2023-03-03T04:29:23.914Z,0.60
2023-03-03T04:30:25.598Z,0.62
2023-03-03T04:31:23.948Z,0.59
2023-03-03T04:32:23.747Z,0.59
2023-03-03T04:33:23.626Z,0.81
2023-03-03T04:34:44.542Z,0.75
2023-03-03T04:35:23.546Z,0.88
2023-03-03T04:36:23.409Z,0.75
2023-03-03T04:37:23.350Z,0.74
2023-03-03T04:38:23.246Z,0.77
2023-03-03T04:39:23.200Z,0.81
2023-03-03T04:40:44.643Z,0.78
2023-03-03T04:41:23.163Z,0.90
2023-03-03T04:42:23.084Z,0.81
2023-03-03T04:43:22.943Z,0.71
2023-03-03T04:44:22.863Z,0.70
2023-03-03T04:45:22.853Z,0.74
2023-03-03T04:46:43.711Z,0.72
2023-03-03T04:47:22.723Z,0.77
2023-03-03T04:48:22.553Z,0.72
2023-03-03T04:49:22.485Z,0.62
2023-03-03T04:50:22.499Z,0.68
2023-03-03T04:51:22.400Z,0.60
2023-03-03T04:52:43.306Z,0.68
2023-03-03T04:53:22.256Z,0.74
2023-03-03T04:54:22.148Z,0.74
2023-03-03T04:55:22.166Z,0.57
2023-03-03T04:56:22.009Z,0.75
2023-03-03T04:57:22.016Z,0.78
2023-03-03T04:58:42.884Z,0.75
2023-03-03T04:59:21.779Z,0.77
2023-03-03T05:00:21.683Z,0.72
2023-03-03T05:01:21.776Z,0.70
2023-03-03T05:02:21.568Z,0.60
2023-03-03T05:03:21.478Z,0.74
2023-03-03T05:04:42.522Z,0.75
2023-03-03T05:05:21.377Z,0.77
2023-03-03T05:06:21.277Z,0.78
2023-03-03T05:07:21.220Z,0.74
2023-03-03T05:08:21.187Z,0.77
2023-03-03T05:09:21.083Z,0.72
2023-03-03T05:10:42.267Z,0.78
2023-03-03T05:11:20.904Z,0.75
2023-03-03T05:12:20.837Z,0.77
2023-03-03T05:13:20.756Z,0.81
2023-03-03T05:14:20.749Z,0.72
2023-03-03T05:15:20.650Z,0.72
2023-03-03T05:16:41.562Z,0.81
2023-03-03T05:17:20.501Z,0.71
2023-03-03T05:18:20.404Z,0.68
2023-03-03T05:19:20.344Z,0.72
2023-03-03T05:20:20.259Z,0.71
2023-03-03T05:21:20.164Z,0.70
2023-03-03T05:22:41.150Z,0.71
2023-03-03T05:23:20.028Z,0.75
2023-03-03T05:24:20.005Z,0.71
2023-03-03T05:25:19.910Z,0.77
2023-03-03T05:26:19.910Z,0.60
2023-03-03T05:27:19.803Z,0.71
2023-03-03T05:28:40.773Z,0.70
2023-03-03T05:29:19.597Z,0.67
2023-03-03T05:30:19.750Z,0.77
2023-03-03T05:31:19.568Z,0.74
2023-03-03T05:32:19.472Z,0.75
2023-03-03T05:33:19.302Z,0.57
2023-03-03T05:34:40.410Z,0.56
2023-03-03T05:35:19.309Z,0.59
2023-03-03T05:36:19.185Z,0.53
2023-03-03T05:37:19.040Z,0.56
2023-03-03T05:38:19.156Z,0.44
2023-03-03T05:39:18.915Z,0.38
2023-03-03T05:40:40.010Z,0.57
2023-03-03T05:41:18.883Z,0.53
2023-03-03T05:42:18.759Z,0.53
2023-03-03T05:43:18.838Z,0.48
2023-03-03T05:44:20.684Z,0.49
2023-03-03T05:45:18.440Z,0.63
2023-03-03T05:46:39.412Z,0.77
2023-03-03T05:47:18.303Z,0.74
2023-03-03T05:48:18.237Z,0.75
2023-03-03T05:49:18.160Z,0.67
2023-03-03T05:50:18.073Z,0.71
2023-03-03T05:51:18.008Z,0.64
2023-03-03T05:52:38.920Z,0.72
2023-03-03T05:53:17.857Z,0.75
2023-03-03T05:54:17.805Z,0.74
2023-03-03T05:55:17.720Z,0.75
2023-03-03T05:56:17.652Z,0.75
2023-03-03T05:57:17.583Z,0.75
2023-03-03T05:58:38.489Z,0.75
2023-03-03T05:59:17.429Z,0.74
2023-03-03T06:00:17.365Z,0.70
2023-03-03T06:01:17.305Z,0.82
2023-03-03T06:02:17.222Z,0.75
2023-03-03T06:03:17.233Z,0.80
2023-03-03T06:04:38.068Z,0.75
2023-03-03T06:05:16.993Z,0.80
2023-03-03T06:06:16.944Z,0.75
2023-03-03T06:07:16.946Z,0.62
2023-03-03T06:08:16.906Z,0.70
2023-03-03T06:09:16.766Z,0.62
2023-03-03T06:10:37.625Z,0.77
2023-03-03T06:11:16.581Z,0.75
2023-03-03T06:12:16.503Z,0.68
2023-03-03T06:13:16.421Z,0.72
2023-03-03T06:14:16.373Z,0.68
2023-03-03T06:15:16.362Z,0.67
2023-03-03T06:16:37.229Z,0.62
2023-03-03T06:17:16.150Z,0.60
2023-03-03T06:18:16.070Z,0.57
2023-03-03T06:19:16.010Z,0.59
2023-03-03T06:20:15.979Z,0.63
2023-03-03T06:21:15.849Z,0.57
2023-03-03T06:22:36.770Z,0.53
2023-03-03T06:23:15.709Z,0.56
2023-03-03T06:24:15.649Z,0.51
2023-03-03T06:25:15.581Z,0.41
2023-03-03T06:26:15.712Z,0.45
2023-03-03T06:27:15.447Z,0.45
2023-03-03T06:28:36.380Z,0.51
2023-03-03T06:29:15.803Z,0.43
2023-03-03T06:30:15.211Z,0.44
2023-03-03T06:31:15.158Z,0.44
2023-03-03T06:32:15.214Z,0.44
2023-03-03T06:33:14.999Z,0.45
2023-03-03T06:34:35.916Z,0.56
2023-03-03T06:35:14.849Z,0.56
2023-03-03T06:36:14.776Z,0.56
2023-03-03T06:37:14.703Z,0.56
2023-03-03T06:38:14.638Z,0.48
2023-03-03T06:39:14.561Z,0.43
2023-03-03T06:40:35.483Z,0.49
2023-03-03T06:41:14.425Z,0.51
2023-03-03T06:42:14.358Z,0.52
2023-03-03T06:43:14.276Z,0.64
2023-03-03T06:44:14.206Z,0.70
2023-03-03T06:45:14.142Z,0.62
2023-03-03T06:46:35.042Z,0.64
2023-03-03T06:47:14.006Z,0.70
2023-03-03T06:48:13.924Z,0.64
2023-03-03T06:49:13.876Z,0.56
2023-03-03T06:50:14.610Z,0.57
2023-03-03T06:51:13.707Z,0.74
2023-03-03T06:52:34.612Z,0.72
2023-03-03T06:53:13.561Z,0.74
2023-03-03T06:54:13.492Z,0.75
2023-03-03T06:55:13.438Z,0.74
2023-03-03T06:56:13.360Z,0.74
2023-03-03T06:57:13.285Z,0.70
2023-03-03T06:58:34.205Z,0.84
2023-03-03T06:59:13.129Z,0.71
2023-03-03T07:00:13.077Z,0.77
2023-03-03T07:01:13.042Z,0.68
2023-03-03T07:02:12.922Z,0.72
2023-03-03T07:03:12.881Z,0.81
2023-03-03T07:04:33.950Z,0.81
2023-03-03T07:05:12.711Z,0.74
2023-03-03T07:06:12.631Z,0.64
2023-03-03T07:07:12.566Z,0.72
2023-03-03T07:08:12.491Z,0.62
2023-03-03T07:09:12.417Z,0.71
2023-03-03T07:10:33.332Z,0.80
2023-03-03T07:11:12.288Z,0.70
2023-03-03T07:12:12.208Z,0.78
2023-03-03T07:13:12.137Z,0.70
2023-03-03T07:14:12.076Z,0.72
2023-03-03T07:15:11.996Z,0.77
2023-03-03T07:16:32.972Z,0.77
2023-03-03T07:17:11.852Z,0.90
2023-03-03T07:18:11.787Z,0.96
2023-03-03T07:19:11.708Z,0.98
2023-03-03T07:20:11.645Z,1.02
2023-03-03T07:21:11.569Z,1.04
2023-03-03T07:22:32.486Z,0.98
2023-03-03T07:23:11.423Z,1.06
2023-03-03T07:24:11.353Z,0.95
2023-03-03T07:25:11.282Z,1.02
2023-03-03T07:26:11.215Z,1.02
2023-03-03T07:27:11.150Z,1.00
2023-03-03T07:28:32.045Z,1.00
2023-03-03T07:29:11.008Z,0.96
2023-03-03T07:30:10.947Z,1.02
2023-03-03T07:31:10.874Z,1.07
2023-03-03T07:32:10.813Z,1.11
2023-03-03T07:33:10.764Z,1.13
2023-03-03T07:34:31.634Z,1.11
2023-03-03T07:35:10.584Z,1.04
2023-03-03T07:36:10.515Z,1.10
2023-03-03T07:37:10.432Z,1.21
2023-03-03T07:38:10.376Z,1.16
2023-03-03T07:39:10.303Z,1.25
2023-03-03T07:40:31.212Z,1.18
2023-03-03T07:41:10.164Z,1.18
2023-03-03T07:42:10.074Z,1.20
2023-03-03T07:43:10.041Z,1.17
2023-03-03T07:44:09.975Z,1.13
2023-03-03T07:45:09.874Z,1.17
2023-03-03T07:46:30.904Z,1.20
2023-03-03T07:47:09.736Z,1.28
2023-03-03T07:48:09.648Z,1.29
2023-03-03T07:49:09.592Z,1.36
2023-03-03T07:50:09.504Z,1.34
2023-03-03T07:51:09.469Z,1.32
2023-03-03T07:52:30.357Z,1.34
2023-03-03T07:53:09.328Z,1.32
2023-03-03T07:54:09.221Z,1.36
2023-03-03T07:55:09.147Z,1.32
2023-03-03T07:56:09.089Z,1.28
2023-03-03T07:57:09.017Z,1.32
2023-03-03T07:58:29.920Z,1.28
2023-03-03T07:59:08.869Z,1.29
2023-03-03T08:00:08.795Z,1.29
2023-03-03T08:01:08.721Z,1.25
2023-03-03T08:02:08.654Z,1.17
2023-03-03T08:03:08.587Z,1.20
2023-03-03T08:04:29.604Z,1.16
2023-03-03T08:05:08.583Z,1.24
2023-03-03T08:06:08.373Z,1.21
2023-03-03T08:07:08.295Z,1.24
2023-03-03T08:08:08.226Z,1.17
2023-03-03T08:09:08.176Z,1.18
2023-03-03T08:10:29.107Z,1.18
2023-03-03T08:11:08.010Z,1.31
2023-03-03T08:12:07.950Z,1.20
2023-03-03T08:13:07.878Z,1.24
2023-03-03T08:14:07.813Z,1.24
2023-03-03T08:15:07.722Z,1.32
2023-03-03T08:16:28.629Z,1.38
2023-03-03T08:17:07.580Z,1.29
2023-03-03T08:18:07.498Z,1.38
2023-03-03T08:19:07.447Z,1.32
2023-03-03T08:20:07.380Z,1.21
2023-03-03T08:21:07.288Z,1.34
2023-03-03T08:22:28.204Z,1.36
2023-03-03T08:23:07.155Z,1.43
2023-03-03T08:24:07.085Z,1.43
2023-03-03T08:25:07.002Z,1.44
2023-03-03T08:26:06.935Z,1.46
2023-03-03T08:27:06.883Z,1.53
2023-03-03T08:28:27.775Z,1.50
2023-03-03T08:29:06.739Z,1.47
2023-03-03T08:30:06.651Z,1.46
2023-03-03T08:31:18.523Z,1.54
2023-03-03T08:32:06.586Z,1.50
2023-03-03T08:33:06.435Z,1.56
2023-03-03T08:34:27.342Z,1.60
2023-03-03T08:35:06.296Z,1.65
2023-03-03T08:36:06.231Z,1.60
2023-03-03T08:37:06.160Z,1.70
2023-03-03T08:38:06.121Z,1.81
2023-03-03T08:39:06.019Z,1.79
2023-03-03T08:40:26.981Z,1.68
2023-03-03T08:41:05.880Z,1.72
2023-03-03T08:42:05.804Z,1.68
2023-03-03T08:43:05.730Z,1.71
2023-03-03T08:44:05.656Z,1.81
2023-03-03T08:45:05.598Z,1.88
2023-03-03T08:46:26.613Z,1.90
2023-03-03T08:47:05.472Z,2.01
2023-03-03T08:48:06.210Z,2.05
2023-03-03T08:49:05.312Z,2.05
2023-03-03T08:50:05.230Z,2.09
2023-03-03T08:51:05.170Z,2.15
2023-03-03T08:52:26.085Z,2.26
2023-03-03T08:53:05.026Z,2.22
2023-03-03T08:54:04.951Z,2.14
2023-03-03T08:55:05.413Z,2.14
2023-03-03T08:56:04.840Z,2.15
2023-03-03T08:57:04.769Z,2.09
2023-03-03T08:58:34.680Z,2.14
2023-03-03T08:59:04.629Z,2.15
2023-03-03T09:00:04.559Z,2.09
2023-03-03T09:01:04.465Z,2.14
2023-03-03T09:02:04.445Z,2.09
2023-03-03T09:03:04.324Z,2.12
2023-03-03T09:04:25.292Z,2.12
2023-03-03T09:05:04.193Z,2.25
2023-03-03T09:06:04.175Z,2.29
2023-03-03T09:07:04.065Z,2.36
2023-03-03T09:08:03.987Z,2.25
2023-03-03T09:09:03.901Z,2.26
2023-03-03T09:10:24.854Z,2.08
2023-03-03T09:11:03.770Z,2.19
2023-03-03T09:12:03.701Z,2.09
2023-03-03T09:13:03.629Z,2.09
2023-03-03T09:14:03.583Z,2.19
2023-03-03T09:15:03.524Z,2.19
2023-03-03T09:16:24.461Z,2.23
2023-03-03T09:17:03.588Z,2.14
2023-03-03T09:18:03.271Z,2.18
2023-03-03T09:19:03.209Z,2.29
2023-03-03T09:20:03.132Z,2.32
2023-03-03T09:21:03.069Z,2.30
2023-03-03T09:22:23.983Z,2.41
2023-03-03T09:23:02.923Z,2.32
2023-03-03T09:24:02.866Z,2.37
2023-03-03T09:25:02.790Z,2.30
2023-03-03T09:26:02.717Z,2.37
2023-03-03T09:27:02.639Z,2.37
2023-03-03T09:28:23.570Z,2.47
2023-03-03T09:29:02.512Z,2.47
2023-03-03T09:30:02.440Z,2.48
2023-03-03T09:31:02.411Z,2.47
2023-03-03T09:32:02.632Z,2.61
2023-03-03T09:33:02.225Z,2.53
2023-03-03T09:34:23.177Z,2.59
2023-03-03T09:35:02.082Z,2.51
2023-03-03T09:36:02.076Z,2.56
2023-03-03T09:37:01.948Z,2.61
2023-03-03T09:38:01.874Z,2.61
2023-03-03T09:39:01.998Z,2.55
2023-03-03T09:40:22.968Z,2.56
2023-03-03T09:41:01.979Z,2.51
2023-03-03T09:42:01.778Z,2.59
2023-03-03T09:43:01.626Z,2.53
2023-03-03T09:44:01.517Z,2.56
2023-03-03T09:45:01.473Z,2.59
2023-03-03T09:46:22.513Z,2.53
2023-03-03T09:47:01.566Z,2.66
2023-03-03T09:48:01.273Z,2.71
2023-03-03T09:49:01.131Z,2.69
2023-03-03T09:50:02.675Z,2.65
2023-03-03T09:51:00.990Z,2.80
2023-03-03T09:52:22.041Z,2.86
2023-03-03T09:53:01.268Z,2.83
2023-03-03T09:54:00.791Z,2.76
2023-03-03T09:55:00.813Z,2.84
2023-03-03T09:56:00.675Z,2.84
2023-03-03T09:57:00.797Z,2.90
2023-03-03T09:58:21.599Z,2.89
2023-03-03T09:59:00.501Z,2.87
2023-03-03T10:00:00.470Z,2.87
2023-03-03T10:01:00.335Z,2.86
2023-03-03T10:02:00.224Z,2.95
2023-03-03T10:03:00.234Z,2.89
2023-03-03T10:04:21.302Z,2.86
2023-03-03T10:05:00.154Z,2.79
2023-03-03T10:06:00.044Z,2.69
2023-03-03T10:07:00.152Z,2.66
2023-03-03T10:07:59.813Z,2.77
2023-03-03T10:08:59.904Z,2.74
2023-03-03T10:10:20.763Z,2.76
2023-03-03T10:10:59.741Z,2.90
2023-03-03T10:11:59.556Z,2.89
2023-03-03T10:12:59.491Z,2.97
2023-03-03T10:13:59.426Z,2.97
2023-03-03T10:14:59.548Z,3.02
2023-03-03T10:16:20.325Z,2.98
2023-03-03T10:16:59.172Z,3.01
2023-03-03T10:17:59.216Z,3.05
2023-03-03T10:18:59.046Z,3.02
2023-03-03T10:19:59.060Z,3.17
2023-03-03T10:20:58.960Z,3.25
2023-03-03T10:22:19.870Z,3.26
2023-03-03T10:22:58.838Z,3.25
2023-03-03T10:23:59.399Z,3.26
2023-03-03T10:24:58.667Z,3.35
2023-03-03T10:25:58.596Z,3.28
2023-03-03T10:27:12.324Z,3.34
2023-03-03T10:28:19.447Z,3.39
2023-03-03T10:28:58.358Z,3.31
2023-03-03T10:29:58.306Z,3.30
2023-03-03T10:31:04.681Z,3.26
2023-03-03T10:31:58.315Z,3.28
2023-03-03T10:32:58.332Z,3.44
2023-03-03T10:34:19.623Z,3.44
2023-03-03T10:34:57.945Z,3.42
2023-03-03T10:36:06.940Z,3.39
2023-03-03T10:37:37.785Z,3.45
2023-03-03T10:37:57.738Z,3.50
2023-03-03T10:38:57.661Z,3.49
2023-03-03T10:40:18.845Z,3.39
2023-03-03T10:40:57.665Z,3.41
2023-03-03T10:41:57.469Z,3.33
2023-03-03T10:42:57.487Z,3.57
2023-03-03T10:43:57.900Z,3.37
2023-03-03T10:44:57.934Z,3.25
2023-03-03T10:46:18.231Z,3.22
2023-03-03T10:46:57.685Z,3.33
2023-03-03T10:47:57.214Z,3.42
2023-03-03T10:48:57.030Z,3.41
2023-03-03T10:49:56.912Z,3.41
2023-03-03T10:50:56.880Z,3.37
2023-03-03T10:52:17.747Z,3.45
2023-03-03T10:52:56.727Z,3.52
2023-03-03T10:53:56.761Z,3.50
2023-03-03T10:54:56.604Z,3.57
2023-03-03T10:55:56.511Z,3.59
2023-03-03T10:56:56.464Z,3.62
2023-03-03T10:58:17.670Z,3.46
2023-03-03T10:58:56.466Z,3.44
2023-03-03T10:59:56.497Z,3.42
2023-03-03T11:00:56.288Z,3.44
2023-03-03T11:01:56.349Z,3.50
2023-03-03T11:02:56.043Z,3.42
2023-03-03T11:04:17.132Z,3.62
2023-03-03T11:04:55.992Z,3.67
2023-03-03T11:05:55.786Z,3.62
2023-03-03T11:06:55.800Z,3.78
2023-03-03T11:07:55.814Z,3.88
2023-03-03T11:08:55.729Z,3.82
2023-03-03T11:10:16.637Z,3.81
2023-03-03T11:10:55.629Z,3.78
2023-03-03T11:11:55.419Z,3.81
2023-03-03T11:12:55.486Z,3.90
2023-03-03T11:13:55.336Z,3.86
2023-03-03T11:14:55.159Z,3.89
2023-03-03T11:16:16.172Z,3.81
2023-03-03T11:16:55.028Z,3.92
2023-03-03T11:17:54.982Z,3.89
2023-03-03T11:18:54.887Z,3.84
2023-03-03T11:19:54.826Z,3.81
2023-03-03T11:20:54.756Z,3.93
2023-03-03T11:22:15.665Z,3.90
2023-03-03T11:22:54.610Z,3.96
2023-03-03T11:23:54.554Z,3.86
2023-03-03T11:24:54.632Z,3.88
2023-03-03T11:25:54.469Z,3.81
2023-03-03T11:26:54.478Z,3.90
2023-03-03T11:28:15.396Z,3.81
2023-03-03T11:28:54.318Z,3.93
2023-03-03T11:29:54.392Z,3.93
2023-03-03T11:30:54.380Z,3.90
2023-03-03T11:31:54.167Z,3.90
2023-03-03T11:32:53.946Z,3.92
2023-03-03T11:34:14.937Z,3.84
2023-03-03T11:34:54.284Z,3.88
2023-03-03T11:35:54.039Z,3.86
2023-03-03T11:36:53.684Z,3.95
2023-03-03T11:37:53.591Z,3.99
2023-03-03T11:38:53.658Z,4.04
2023-03-03T11:40:14.464Z,4.02
2023-03-03T11:40:53.395Z,3.95
2023-03-03T11:41:53.446Z,4.06
2023-03-03T11:42:53.311Z,3.98
2023-03-03T11:43:53.274Z,3.99
2023-03-03T11:44:53.320Z,4.04
2023-03-03T11:46:14.366Z,4.14
2023-03-03T11:46:53.180Z,4.11
2023-03-03T11:47:53.119Z,4.21
2023-03-03T11:48:52.862Z,4.14
2023-03-03T11:49:52.891Z,3.98
2023-03-03T11:50:52.884Z,4.00
2023-03-03T11:52:13.681Z,4.02
2023-03-03T11:52:52.589Z,4.07
2023-03-03T11:53:52.584Z,4.00
2023-03-03T11:54:52.580Z,3.96
2023-03-03T11:55:52.434Z,3.98
2023-03-03T11:56:52.317Z,4.00
2023-03-03T11:58:13.252Z,3.95
2023-03-03T11:58:52.166Z,3.96
2023-03-03T11:59:52.416Z,4.02
2023-03-03T12:00:52.161Z,4.10
2023-03-03T12:01:52.008Z,4.17
2023-03-03T12:02:51.923Z,4.18
2023-03-03T12:04:12.879Z,4.26
2023-03-03T12:04:51.814Z,4.17
2023-03-03T12:05:51.725Z,4.18
2023-03-03T12:06:51.621Z,4.21
2023-03-03T12:07:51.761Z,4.21
2023-03-03T12:08:51.804Z,4.08
2023-03-03T12:10:12.925Z,4.17
2023-03-03T12:10:51.394Z,4.16
2023-03-03T12:11:53.996Z,4.13
2023-03-03T12:12:51.340Z,4.24
2023-03-03T12:13:51.205Z,4.26
2023-03-03T12:14:51.075Z,4.13
2023-03-03T12:16:12.099Z,4.11
2023-03-03T12:16:50.955Z,4.07
2023-03-03T12:17:51.185Z,4.10
2023-03-03T12:18:50.900Z,4.11
2023-03-03T12:19:50.765Z,4.24
2023-03-03T12:20:50.755Z,4.28
2023-03-03T12:22:11.596Z,4.18
2023-03-03T12:23:05.774Z,4.32
2023-03-03T12:23:50.811Z,4.31
2023-03-03T12:24:50.506Z,4.29
2023-03-03T12:25:50.489Z,4.42
2023-03-03T12:26:50.232Z,4.34
2023-03-03T12:28:11.155Z,4.32
2023-03-03T12:28:50.096Z,4.21
2023-03-03T12:29:50.034Z,4.21
2023-03-03T12:30:49.950Z,4.42
2023-03-03T12:31:49.900Z,4.36
2023-03-03T12:32:49.812Z,4.31
2023-03-03T12:34:10.792Z,4.49
2023-03-03T12:34:49.713Z,4.47
2023-03-03T12:35:50.762Z,4.46
2023-03-03T12:36:49.579Z,4.43
2023-03-03T12:37:49.514Z,4.46
2023-03-03T12:38:49.439Z,4.46
2023-03-03T12:40:10.361Z,4.46
2023-03-03T12:40:49.308Z,4.54
2023-03-03T12:41:49.292Z,4.56
2023-03-03T12:42:49.187Z,4.51
2023-03-03T12:43:49.170Z,4.46
2023-03-03T12:44:49.016Z,4.51
2023-03-03T12:46:09.967Z,4.59
2023-03-03T12:46:48.929Z,4.54
2023-03-03T12:47:48.852Z,4.64
2023-03-03T12:48:48.996Z,4.65
2023-03-03T12:49:57.740Z,4.64
2023-03-03T12:50:48.624Z,4.51
2023-03-03T12:52:09.542Z,4.42
2023-03-03T12:52:48.634Z,4.38
2023-03-03T12:53:48.529Z,4.44
2023-03-03T12:54:49.226Z,4.43
2023-03-03T12:55:48.604Z,4.43
2023-03-03T12:56:48.222Z,4.43
2023-03-03T12:58:09.372Z,4.43
2023-03-03T12:58:48.093Z,4.34
2023-03-03T12:59:48.040Z,4.43
2023-03-03T13:00:48.274Z,4.38
2023-03-03T13:01:48.726Z,4.44
2023-03-03T13:02:47.826Z,4.46
2023-03-03T13:04:08.779Z,4.57
2023-03-03T13:04:47.655Z,4.62
2023-03-03T13:05:47.782Z,4.59
2023-03-03T13:06:47.854Z,4.59
2023-03-03T13:07:47.566Z,4.68
2023-03-03T13:08:47.452Z,4.74
2023-03-03T13:10:08.735Z,4.83
2023-03-03T13:10:47.309Z,4.88
2023-03-03T13:11:47.180Z,4.83
2023-03-03T13:12:47.161Z,4.94
2023-03-03T13:13:47.157Z,4.88
2023-03-03T13:14:47.051Z,4.87
2023-03-03T13:16:08.993Z,4.74
2023-03-03T13:16:47.205Z,4.67
2023-03-03T13:17:49.285Z,4.77